createdAt,value
2022-08-22T00:01:45.963Z,20.14
2022-08-22T00:03:00.352Z,21.44
2022-08-22T00:04:21.235Z,20.13
2022-08-22T00:06:57.405Z,20.13
2022-08-22T00:09:45.431Z,20.07
2022-08-22T00:12:24.798Z,20.08
2022-08-22T00:15:03.582Z,20.02
2022-08-22T00:17:40.109Z,20.00
2022-08-22T00:20:18.969Z,20.04
2022-08-22T00:22:50.685Z,20.08
2022-08-22T00:25:25.546Z,20.10
2022-08-22T00:28:07.389Z,20.13
2022-08-22T00:30:49.552Z,20.13
2022-08-22T00:33:30.537Z,20.14
2022-08-22T00:36:10.850Z,20.16
2022-08-22T00:38:50.002Z,20.15
2022-08-22T00:41:34.293Z,20.13
2022-08-22T00:44:33.809Z,20.10
2022-08-22T00:47:36.246Z,20.09
2022-08-22T00:50:27.430Z,20.08
2022-08-22T00:53:11.779Z,20.07
2022-08-22T00:55:59.061Z,20.08
2022-08-22T00:58:45.338Z,20.06
2022-08-22T01:01:16.948Z,20.06
2022-08-22T01:03:53.346Z,20.04
2022-08-22T01:06:44.873Z,20.01
2022-08-22T01:09:11.228Z,19.99
2022-08-22T01:12:01.157Z,19.95
2022-08-22T01:14:49.106Z,19.95
2022-08-22T01:17:33.757Z,19.94
2022-08-22T01:20:29.333Z,19.94
2022-08-22T01:23:01.402Z,19.93
2022-08-22T01:26:05.489Z,19.91
2022-08-22T01:29:03.033Z,19.91
2022-08-22T01:31:57.802Z,19.90
2022-08-22T01:34:58.069Z,19.88
2022-08-22T01:37:59.501Z,19.87
2022-08-22T01:40:54.167Z,19.86
2022-08-22T01:43:51.339Z,19.83
2022-08-22T01:46:43.993Z,19.78
2022-08-22T01:49:23.625Z,19.73
2022-08-22T01:52:05.319Z,19.69
2022-08-22T01:54:50.610Z,19.66
2022-08-22T01:57:19.175Z,19.62
2022-08-22T01:59:51.412Z,19.61
2022-08-22T02:02:45.873Z,19.60
2022-08-22T02:05:31.682Z,19.58
2022-08-22T02:08:14.066Z,19.56
2022-08-22T02:11:04.617Z,19.55
2022-08-22T02:13:57.826Z,19.54
2022-08-22T02:16:41.156Z,19.56
2022-08-22T02:19:16.498Z,19.56
2022-08-22T02:22:06.151Z,19.56
2022-08-22T02:24:51.305Z,19.56
2022-08-22T02:27:31.743Z,19.55
2022-08-22T02:30:05.493Z,19.54
2022-08-22T02:32:40.810Z,19.53
2022-08-22T02:35:14.255Z,19.52
2022-08-22T02:38:13.717Z,19.49
2022-08-22T02:41:18.517Z,19.49
2022-08-22T02:44:01.492Z,19.49
2022-08-22T02:46:30.801Z,19.48
2022-08-22T02:49:20.617Z,19.48
2022-08-22T02:52:03.428Z,19.47
2022-08-22T02:54:47.202Z,19.45
2022-08-22T02:57:30.014Z,19.42
2022-08-22T03:00:31.240Z,19.43
2022-08-22T03:03:16.570Z,19.43
2022-08-22T03:06:00.861Z,19.41
2022-08-22T03:08:42.860Z,19.40
2022-08-22T03:11:27.146Z,19.40
2022-08-22T03:14:01.304Z,19.39
2022-08-22T03:16:40.429Z,19.36
2022-08-22T03:19:24.820Z,19.35
2022-08-22T03:22:02.582Z,19.34
2022-08-22T03:24:48.754Z,19.34
2022-08-22T03:27:32.744Z,19.34
2022-08-22T03:30:11.065Z,19.33
2022-08-22T03:32:58.954Z,19.31
2022-08-22T03:35:34.440Z,19.31
2022-08-22T03:38:18.248Z,19.30
2022-08-22T03:41:23.752Z,19.28
2022-08-22T03:44:30.473Z,19.29
2022-08-22T03:47:10.467Z,19.27
2022-08-22T03:49:58.911Z,19.22
2022-08-22T03:53:10.289Z,19.25
2022-08-22T03:56:26.598Z,19.32
2022-08-22T03:59:14.189Z,19.35
2022-08-22T04:01:53.371Z,19.35
2022-08-22T04:04:36.521Z,19.36
2022-08-22T04:07:35.188Z,19.37
2022-08-22T04:10:28.673Z,19.36
2022-08-22T04:13:04.154Z,19.37
2022-08-22T04:16:06.635Z,19.36
2022-08-22T04:19:11.001Z,19.39
2022-08-22T04:21:57.231Z,19.39
2022-08-22T04:24:42.969Z,19.39
2022-08-22T04:27:18.132Z,19.30
2022-08-22T04:29:58.215Z,19.26
2022-08-22T04:33:06.839Z,19.24
2022-08-22T04:35:44.417Z,19.16
2022-08-22T04:38:22.498Z,19.13
2022-08-22T04:41:01.352Z,19.16
2022-08-22T04:43:38.350Z,19.21
2022-08-22T04:46:54.318Z,19.21
2022-08-22T04:49:32.558Z,19.21
2022-08-22T04:52:29.605Z,19.22
2022-08-22T04:55:08.509Z,19.21
2022-08-22T04:57:49.825Z,19.24
2022-08-22T05:00:17.652Z,19.27
2022-08-22T05:02:50.672Z,19.31
2022-08-22T05:05:23.465Z,19.33
2022-08-22T05:07:57.153Z,19.34
2022-08-22T05:10:28.510Z,19.37
2022-08-22T05:13:01.067Z,19.37
2022-08-22T05:15:33.571Z,19.42
2022-08-22T05:18:07.698Z,19.41
2022-08-22T05:20:36.183Z,19.43
2022-08-22T05:23:17.075Z,19.39
2022-08-22T05:25:48.549Z,19.41
2022-08-22T05:28:24.057Z,19.41
2022-08-22T05:30:51.372Z,19.42
2022-08-22T05:33:41.639Z,19.44
2022-08-22T05:36:33.367Z,19.43
2022-08-22T05:39:11.575Z,19.43
2022-08-22T05:41:39.282Z,19.41
2022-08-22T05:44:18.145Z,19.40
2022-08-22T05:46:49.913Z,19.35
2022-08-22T05:49:16.259Z,19.32
2022-08-22T05:52:04.171Z,19.33
2022-08-22T05:54:37.867Z,19.34
2022-08-22T05:57:38.647Z,19.37
2022-08-22T06:00:22.418Z,19.41
2022-08-22T06:03:11.316Z,19.43
2022-08-22T06:05:42.517Z,19.43
2022-08-22T06:08:21.247Z,19.41
2022-08-22T06:10:53.229Z,19.41
2022-08-22T06:13:34.770Z,19.41
2022-08-22T06:16:13.420Z,19.41
2022-08-22T06:18:43.297Z,19.40
2022-08-22T06:21:24.069Z,19.43
2022-08-22T06:23:57.559Z,19.45
2022-08-22T06:26:34.478Z,19.44
2022-08-22T06:29:02.742Z,19.47
2022-08-22T06:31:34.434Z,19.48
2022-08-22T06:34:03.771Z,19.48
2022-08-22T06:36:34.228Z,19.46
2022-08-22T06:39:12.972Z,19.40
2022-08-22T06:41:47.612Z,19.38
2022-08-22T06:44:18.868Z,19.39
2022-08-22T06:46:48.425Z,19.31
2022-08-22T06:49:15.920Z,19.30
2022-08-22T06:51:43.733Z,19.26
2022-08-22T06:54:19.213Z,19.25
2022-08-22T06:56:48.956Z,19.26
2022-08-22T06:59:21.097Z,19.33
2022-08-22T07:01:52.435Z,19.37
2022-08-22T07:04:26.569Z,19.42
2022-08-22T07:06:56.223Z,19.48
2022-08-22T07:09:30.479Z,19.51
2022-08-22T07:12:02.934Z,19.55
2022-08-22T07:14:38.423Z,19.51
2022-08-22T07:17:10.506Z,19.56
2022-08-22T07:19:41.522Z,19.62
2022-08-22T07:22:17.034Z,19.68
2022-08-22T07:24:48.388Z,19.66
2022-08-22T07:27:48.826Z,19.68
2022-08-22T07:30:27.451Z,19.73
2022-08-22T07:32:57.755Z,19.78
2022-08-22T07:35:54.013Z,19.83
2022-08-22T07:38:30.869Z,19.80
2022-08-22T07:41:13.017Z,19.86
2022-08-22T07:44:05.478Z,19.93
2022-08-22T07:46:37.477Z,19.99
2022-08-22T07:49:26.140Z,20.04
2022-08-22T07:51:58.768Z,19.99
2022-08-22T07:54:36.344Z,20.01
2022-08-22T07:57:11.047Z,20.03
2022-08-22T07:59:42.864Z,20.10
2022-08-22T08:02:12.908Z,20.20
2022-08-22T08:04:41.265Z,20.23
2022-08-22T08:07:11.920Z,20.30
2022-08-22T08:09:46.861Z,20.30
2022-08-22T08:12:14.683Z,20.34
2022-08-22T08:14:45.481Z,20.41
2022-08-22T08:17:34.330Z,20.51
2022-08-22T08:20:08.613Z,20.54
2022-08-22T08:22:37.386Z,20.52
2022-08-22T08:25:05.838Z,20.53
2022-08-22T08:27:56.172Z,20.51
2022-08-22T08:30:36.525Z,20.52
2022-08-22T08:33:26.182Z,20.51
2022-08-22T08:36:26.360Z,20.56
2022-08-22T08:39:02.590Z,20.61
2022-08-22T08:42:01.769Z,20.66
2022-08-22T08:44:46.882Z,20.71
2022-08-22T08:47:39.773Z,20.73
2022-08-22T08:50:21.493Z,20.78
2022-08-22T08:52:52.937Z,20.87
2022-08-22T08:55:51.049Z,20.93
2022-08-22T08:58:33.565Z,20.98
2022-08-22T09:01:19.516Z,21.01
2022-08-22T09:04:21.010Z,21.07
2022-08-22T09:07:35.450Z,21.05
2022-08-22T09:10:20.870Z,21.09
2022-08-22T09:13:29.600Z,21.16
2022-08-22T09:16:36.592Z,21.21
2022-08-22T09:19:29.769Z,21.21
2022-08-22T09:22:25.120Z,21.25
2022-08-22T09:24:57.180Z,21.24
2022-08-22T09:27:56.070Z,21.32
2022-08-22T09:30:28.793Z,21.33
2022-08-22T09:33:21.382Z,21.31
2022-08-22T09:36:05.081Z,21.33
2022-08-22T09:39:17.570Z,21.36
2022-08-22T09:42:17.472Z,21.50
2022-08-22T09:45:17.448Z,21.57
2022-08-22T09:48:14.640Z,21.63
2022-08-22T09:50:52.719Z,21.69
2022-08-22T09:53:55.893Z,21.74
2022-08-22T09:56:58.208Z,21.76
2022-08-22T09:59:50.738Z,21.77
2022-08-22T10:02:53.858Z,21.83
2022-08-22T10:05:40.310Z,21.93
2022-08-22T10:08:19.629Z,21.88
2022-08-22T10:10:58.656Z,21.83
2022-08-22T10:14:00.462Z,21.82
2022-08-22T10:17:02.321Z,22.00
2022-08-22T10:19:38.131Z,22.05
2022-08-22T10:22:32.555Z,21.97
2022-08-22T10:25:18.526Z,21.91
2022-08-22T10:27:56.033Z,21.91
2022-08-22T10:31:06.036Z,21.89
2022-08-22T10:33:39.933Z,21.91
2022-08-22T10:36:12.886Z,21.96
2022-08-22T10:38:54.629Z,22.08
2022-08-22T10:41:36.652Z,22.20
2022-08-22T10:44:04.033Z,22.27
2022-08-22T10:46:42.245Z,22.36
2022-08-22T10:49:22.569Z,22.21
2022-08-22T10:52:18.526Z,22.13
2022-08-22T10:54:56.339Z,22.16
2022-08-22T10:57:37.290Z,22.33
2022-08-22T11:00:26.993Z,22.30
2022-08-22T11:03:25.689Z,22.29
2022-08-22T11:05:58.023Z,22.37
2022-08-22T11:08:34.605Z,22.37
2022-08-22T11:11:25.772Z,22.38
2022-08-22T11:14:30.142Z,22.55
2022-08-22T11:17:29.899Z,22.70
2022-08-22T11:20:25.104Z,22.81
2022-08-22T11:23:06.775Z,22.87
2022-08-22T11:25:52.428Z,22.94
2022-08-22T11:28:37.639Z,22.96
2022-08-22T11:31:17.034Z,22.99
2022-08-22T11:33:55.274Z,22.84
2022-08-22T11:37:03.972Z,22.80
2022-08-22T11:39:47.170Z,22.72
2022-08-22T11:42:31.509Z,22.65
2022-08-22T11:45:04.538Z,22.65
2022-08-22T11:48:00.461Z,22.61
2022-08-22T11:50:38.665Z,22.56
2022-08-22T11:53:33.990Z,22.54
2022-08-22T11:56:10.469Z,22.53
2022-08-22T11:59:23.733Z,22.56
2022-08-22T12:02:08.967Z,22.59
2022-08-22T12:04:44.490Z,22.59
2022-08-22T12:07:17.573Z,22.62
2022-08-22T12:10:02.202Z,22.62
2022-08-22T12:12:37.648Z,22.66
2022-08-22T12:15:37.393Z,22.71
2022-08-22T12:18:30.870Z,22.67
2022-08-22T12:21:12.725Z,22.68
2022-08-22T12:23:49.012Z,22.70
2022-08-22T12:26:43.923Z,22.74
2022-08-22T12:29:33.994Z,22.77
2022-08-22T12:32:45.775Z,22.87
2022-08-22T12:35:39.371Z,22.90
2022-08-22T12:38:28.549Z,22.83
2022-08-22T12:41:13.997Z,22.76
2022-08-22T12:44:21.619Z,22.77
2022-08-22T12:47:10.449Z,22.77
2022-08-22T12:49:55.945Z,22.78
2022-08-22T12:52:52.238Z,22.79
2022-08-22T12:55:33.114Z,22.70
2022-08-22T12:58:38.177Z,22.65
2022-08-22T13:01:07.439Z,22.63
2022-08-22T13:03:42.125Z,22.65
2022-08-22T13:06:48.877Z,22.70
2022-08-22T13:09:28.708Z,22.80
2022-08-22T13:12:15.630Z,23.03
2022-08-22T13:14:52.323Z,23.10
2022-08-22T13:17:25.063Z,23.02
2022-08-22T13:19:59.002Z,22.95
2022-08-22T13:22:29.577Z,22.91
2022-08-22T13:25:16.175Z,22.85
2022-08-22T13:27:56.142Z,22.77
2022-08-22T13:30:37.590Z,22.74
2022-08-22T13:33:12.440Z,22.79
2022-08-22T13:35:42.241Z,22.89
2022-08-22T13:38:17.423Z,22.99
2022-08-22T13:40:53.968Z,23.00
2022-08-22T13:43:33.776Z,22.95
2022-08-22T13:46:03.465Z,22.96
2022-08-22T13:48:50.528Z,22.91
2022-08-22T13:51:31.273Z,22.86
2022-08-22T13:54:11.266Z,22.81
2022-08-22T13:56:57.056Z,22.79
2022-08-22T13:59:51.671Z,22.79
2022-08-22T14:02:37.489Z,22.75
2022-08-22T14:05:13.241Z,22.73
2022-08-22T14:07:57.036Z,22.82
2022-08-22T14:10:30.303Z,22.91
2022-08-22T14:12:57.392Z,23.04
2022-08-22T14:15:44.767Z,23.14
2022-08-22T14:18:31.537Z,23.22
2022-08-22T14:21:27.806Z,23.25
2022-08-22T14:24:00.037Z,23.25
2022-08-22T14:26:33.162Z,23.29
2022-08-22T14:29:11.537Z,23.27
2022-08-22T14:31:38.292Z,23.14
2022-08-22T14:34:10.390Z,23.04
2022-08-22T14:36:56.210Z,23.05
2022-08-22T14:39:36.912Z,23.16
2022-08-22T14:42:15.514Z,23.24
2022-08-22T14:45:06.675Z,23.32
2022-08-22T14:48:29.242Z,23.32
2022-08-22T14:50:37.329Z,23.33
2022-08-22T14:53:25.226Z,23.35
2022-08-22T14:55:56.918Z,23.35
2022-08-22T14:58:26.364Z,23.39
2022-08-22T15:00:56.308Z,23.43
2022-08-22T15:03:32.253Z,23.42
2022-08-22T15:06:05.092Z,23.43
2022-08-22T15:08:36.061Z,23.41
2022-08-22T15:11:27.082Z,23.39
2022-08-22T15:14:12.560Z,23.40
2022-08-22T15:16:50.834Z,23.38
2022-08-22T15:19:35.335Z,23.41
2022-08-22T15:22:14.811Z,23.43
2022-08-22T15:25:03.746Z,23.42
2022-08-22T15:27:33.258Z,23.43
2022-08-22T15:30:05.033Z,23.43
2022-08-22T15:32:41.735Z,23.44
2022-08-22T15:35:15.449Z,23.47
2022-08-22T15:38:05.400Z,23.49
2022-08-22T15:40:40.592Z,23.48
2022-08-22T15:43:34.922Z,23.45
2022-08-22T15:46:36.517Z,23.41
2022-08-22T15:49:10.587Z,23.37
2022-08-22T15:51:50.234Z,23.34
2022-08-22T15:54:24.414Z,23.31
2022-08-22T15:56:51.778Z,23.27
2022-08-22T15:59:53.492Z,23.31
2022-08-22T16:02:27.875Z,23.35
2022-08-22T16:05:14.163Z,23.29
2022-08-22T16:08:02.756Z,23.26
2022-08-22T16:10:36.299Z,23.27
2022-08-22T16:13:38.157Z,23.29
2022-08-22T16:16:25.113Z,23.30
2022-08-22T16:18:51.486Z,23.27
2022-08-22T16:21:20.820Z,23.24
2022-08-22T16:23:50.876Z,23.24
2022-08-22T16:26:39.439Z,23.25
2022-08-22T16:29:17.813Z,23.26
2022-08-22T16:31:44.565Z,23.22
2022-08-22T16:34:17.117Z,23.23
2022-08-22T16:37:05.154Z,23.25
2022-08-22T16:39:37.018Z,23.28
2022-08-22T16:42:12.398Z,23.31
2022-08-22T16:44:50.957Z,23.31
2022-08-22T16:47:21.194Z,23.25
2022-08-22T16:49:50.553Z,23.23
2022-08-22T16:52:26.207Z,23.20
2022-08-22T16:54:54.045Z,23.11
2022-08-22T16:57:27.334Z,23.15
2022-08-22T17:00:12.128Z,23.22
2022-08-22T17:02:56.965Z,23.20
2022-08-22T17:05:47.932Z,23.17
2022-08-22T17:08:14.291Z,23.13
2022-08-22T17:11:02.881Z,23.11
2022-08-22T17:13:56.912Z,23.05
2022-08-22T17:16:39.786Z,23.06
2022-08-22T17:19:18.428Z,23.06
2022-08-22T17:21:58.794Z,23.06
2022-08-22T17:25:02.960Z,23.07
2022-08-22T17:27:46.405Z,23.06
2022-08-22T17:30:20.193Z,23.11
2022-08-22T17:33:04.517Z,23.11
2022-08-22T17:35:43.676Z,23.11
2022-08-22T17:38:31.220Z,23.06
2022-08-22T17:41:00.942Z,23.03
2022-08-22T17:43:52.396Z,23.04
2022-08-22T17:46:24.850Z,23.06
2022-08-22T17:49:12.735Z,23.04
2022-08-22T17:51:51.205Z,23.04
2022-08-22T17:54:30.030Z,23.05
2022-08-22T17:57:05.702Z,23.04
2022-08-22T17:59:52.638Z,23.00
2022-08-22T18:02:22.834Z,22.95
2022-08-22T18:05:01.593Z,22.93
2022-08-22T18:07:45.702Z,22.90
2022-08-22T18:10:41.525Z,22.90
2022-08-22T18:13:45.671Z,22.90
2022-08-22T18:16:24.534Z,22.89
2022-08-22T18:19:32.836Z,22.90
2022-08-22T18:22:05.706Z,22.87
2022-08-22T18:24:46.233Z,22.85
2022-08-22T18:27:34.741Z,22.83
2022-08-22T18:30:16.438Z,22.82
2022-08-22T18:32:53.995Z,22.82
2022-08-22T18:35:33.861Z,22.79
2022-08-22T18:38:24.866Z,22.78
2022-08-22T18:41:33.904Z,22.74
2022-08-22T18:44:17.772Z,22.75
2022-08-22T18:46:51.997Z,22.74
2022-08-22T18:49:19.395Z,22.74
2022-08-22T18:52:07.010Z,22.70
2022-08-22T18:54:55.036Z,22.69
2022-08-22T18:57:59.091Z,22.71
2022-08-22T19:00:52.307Z,22.73
2022-08-22T19:03:36.142Z,22.71
2022-08-22T19:06:26.130Z,22.71
2022-08-22T19:09:15.214Z,22.63
2022-08-22T19:12:19.273Z,22.65
2022-08-22T19:15:23.053Z,22.65
2022-08-22T19:18:08.503Z,22.62
2022-08-22T19:20:58.058Z,22.65
2022-08-22T19:23:33.814Z,22.67
2022-08-22T19:26:37.140Z,22.70
2022-08-22T19:29:10.619Z,22.70
2022-08-22T19:31:39.805Z,22.68
2022-08-22T19:34:30.797Z,22.66
2022-08-22T19:37:30.454Z,22.68
2022-08-22T19:40:08.262Z,22.71
2022-08-22T19:42:38.987Z,22.73
2022-08-22T19:45:25.676Z,22.70
2022-08-22T19:47:59.910Z,22.70
2022-08-22T19:50:31.639Z,22.69
2022-08-22T19:53:17.172Z,22.68
2022-08-22T19:56:11.182Z,22.65
2022-08-22T19:59:04.342Z,22.66
2022-08-22T20:01:44.160Z,22.66
2022-08-22T20:04:28.873Z,22.61
2022-08-22T20:07:28.432Z,22.60
2022-08-22T20:09:57.948Z,22.55
2022-08-22T20:12:58.312Z,22.52
2022-08-22T20:15:26.899Z,22.53
2022-08-22T20:20:58.314Z,22.48
2022-08-22T20:23:30.774Z,22.47
2022-08-22T20:25:58.581Z,22.48
2022-08-22T20:28:34.320Z,22.47
2022-08-22T20:31:05.821Z,22.47
2022-08-22T20:33:39.638Z,22.48
2022-08-22T20:36:27.212Z,22.50
2022-08-22T20:38:59.898Z,22.49
2022-08-22T20:41:35.612Z,22.47
2022-08-22T20:44:21.609Z,22.46
2022-08-22T20:46:53.577Z,22.46
2022-08-22T20:49:37.610Z,22.45
2022-08-22T20:52:07.905Z,22.42
2022-08-22T20:54:38.954Z,22.42
2022-08-22T20:57:15.985Z,22.38
2022-08-22T20:59:51.145Z,22.36
2022-08-22T21:02:26.650Z,22.35
2022-08-22T21:05:01.840Z,22.33
2022-08-22T21:07:38.246Z,22.31
2022-08-22T21:10:39.687Z,22.33
2022-08-22T21:13:12.643Z,22.29
2022-08-22T21:15:41.331Z,22.27
2022-08-22T21:18:10.705Z,22.26
2022-08-22T21:20:38.274Z,22.25
2022-08-22T21:23:10.014Z,22.26
2022-08-22T21:25:59.006Z,22.22
2022-08-22T21:28:54.122Z,22.21
2022-08-22T21:31:25.062Z,22.20
2022-08-22T21:33:53.792Z,22.20
2022-08-22T21:36:27.463Z,22.19
2022-08-22T21:39:01.814Z,22.19
2022-08-22T21:42:02.721Z,22.18
2022-08-22T21:44:31.903Z,22.17
2022-08-22T21:47:30.436Z,22.12
2022-08-22T21:50:12.555Z,22.13
2022-08-22T21:52:44.743Z,22.13
2022-08-22T21:55:27.610Z,22.14
2022-08-22T21:58:08.717Z,22.13
2022-08-22T22:00:49.718Z,22.13
2022-08-22T22:03:25.285Z,22.11
2022-08-22T22:05:56.220Z,22.10
2022-08-22T22:08:22.686Z,22.10
2022-08-22T22:10:58.504Z,22.10
2022-08-22T22:13:27.132Z,22.09
2022-08-22T22:15:55.678Z,22.08
2022-08-22T22:18:27.227Z,22.09
2022-08-22T22:20:54.765Z,22.09
2022-08-22T22:23:22.291Z,22.08
2022-08-22T22:25:50.169Z,22.08
2022-08-22T22:28:28.250Z,22.06
2022-08-22T22:30:54.698Z,22.03
2022-08-22T22:33:25.275Z,22.03
2022-08-22T22:35:54.484Z,22.01
2022-08-22T22:38:24.041Z,22.02
2022-08-22T22:40:51.258Z,22.02
2022-08-22T22:43:17.718Z,21.99
2022-08-22T22:45:44.128Z,22.00
2022-08-22T22:48:10.616Z,22.00
2022-08-22T22:50:44.204Z,22.00
2022-08-22T22:53:11.554Z,22.00
2022-08-22T22:55:47.963Z,21.97
2022-08-22T22:58:27.020Z,22.00
2022-08-22T23:00:53.504Z,21.99
2022-08-22T23:03:20.196Z,21.98
2022-08-22T23:05:46.739Z,21.98
2022-08-22T23:08:13.137Z,21.96
2022-08-22T23:10:39.569Z,21.92
2022-08-22T23:13:06.457Z,21.91
2022-08-22T23:15:33.096Z,21.90
2022-08-22T23:17:59.615Z,21.91
2022-08-22T23:20:26.098Z,21.90
2022-08-22T23:22:52.553Z,21.89
2022-08-22T23:25:18.976Z,21.87
2022-08-22T23:27:48.708Z,21.86
2022-08-22T23:30:19.118Z,21.85
2022-08-22T23:32:45.514Z,21.84
2022-08-22T23:35:11.931Z,21.79
2022-08-22T23:37:38.484Z,21.76
2022-08-22T23:40:07.964Z,21.75
2022-08-22T23:42:34.658Z,21.74
2022-08-22T23:45:01.068Z,21.74
2022-08-22T23:47:27.481Z,21.72
2022-08-22T23:49:53.876Z,21.72
2022-08-22T23:52:22.191Z,21.72
2022-08-22T23:54:48.653Z,21.73
2022-08-22T23:57:20.967Z,21.73
2022-08-22T23:59:57.651Z,21.72
